createdAt,value
2017-05-04T00:00:08.750Z,930.1
2017-05-04T00:00:28.001Z,930.11
2017-05-04T00:00:47.246Z,930.06
2017-05-04T00:01:06.503Z,930.07
2017-05-04T00:01:25.773Z,930.03
2017-05-04T00:01:45.045Z,930.06
2017-05-04T00:02:03.811Z,930.05
2017-05-04T00:02:23.082Z,930.02
2017-05-04T00:02:41.849Z,930.04
2017-05-04T00:03:01.104Z,930.02
2017-05-04T00:03:19.813Z,930.03
2017-05-04T00:03:39.068Z,930.02
2017-05-04T00:03:58.351Z,930
2017-05-04T00:04:17.619Z,930
2017-05-04T00:04:36.348Z,930.04
2017-05-04T00:04:55.593Z,930.02
2017-05-04T00:05:14.799Z,930.01
2017-05-04T00:05:33.533Z,930.04
2017-05-04T00:05:52.270Z,930.03
2017-05-04T00:06:11.520Z,930.02
2017-05-04T00:06:30.783Z,929.99
2017-05-04T00:06:50.059Z,929.97
2017-05-04T00:07:09.292Z,930.01
2017-05-04T00:07:28.109Z,930.01
2017-05-04T00:07:47.429Z,930.01
2017-05-04T00:08:06.682Z,929.97
2017-05-04T00:08:24.944Z,929.96
2017-05-04T00:08:44.207Z,929.97
2017-05-04T00:09:03.483Z,929.94
2017-05-04T00:09:22.237Z,929.93
2017-05-04T00:09:41.494Z,929.93
2017-05-04T00:10:00.230Z,929.91
2017-05-04T00:10:19.536Z,929.92
2017-05-04T00:10:38.804Z,929.89
2017-05-04T00:10:58.055Z,929.89
2017-05-04T00:11:16.814Z,929.9
2017-05-04T00:11:36.080Z,929.88
2017-05-04T00:11:54.804Z,929.87
2017-05-04T00:12:13.572Z,929.87
2017-05-04T00:12:32.805Z,929.89
2017-05-04T00:12:51.550Z,929.85
2017-05-04T00:13:10.325Z,929.84
2017-05-04T00:13:29.572Z,929.82
2017-05-04T00:13:48.857Z,929.81
2017-05-04T00:14:08.130Z,929.82
2017-05-04T00:14:27.407Z,929.82
2017-05-04T00:14:46.130Z,929.84
2017-05-04T00:15:05.378Z,929.82
2017-05-04T00:15:24.637Z,929.81
2017-05-04T00:15:43.400Z,929.84
2017-05-04T00:16:02.664Z,929.83
2017-05-04T00:16:21.416Z,929.85
2017-05-04T00:16:40.669Z,929.83
2017-05-04T00:16:59.925Z,929.87
2017-05-04T00:17:19.190Z,929.85
2017-05-04T00:17:38.465Z,929.86
2017-05-04T00:17:57.752Z,929.85
2017-05-04T00:18:17.016Z,929.85
2017-05-04T00:18:35.794Z,929.87
2017-05-04T00:18:55.046Z,929.87
2017-05-04T00:19:14.312Z,929.91
2017-05-04T00:19:33.564Z,929.87
2017-05-04T00:19:52.320Z,929.86
2017-05-04T00:20:11.595Z,929.89
2017-05-04T00:20:30.842Z,929.91
2017-05-04T00:20:50.113Z,929.92
2017-05-04T00:21:09.402Z,929.92
2017-05-04T00:21:28.742Z,929.92
2017-05-04T00:21:47.492Z,929.93
2017-05-04T00:22:06.263Z,929.93
2017-05-04T00:22:25.542Z,929.89
2017-05-04T00:22:44.325Z,929.93
2017-05-04T00:23:03.606Z,929.93
2017-05-04T00:23:22.379Z,929.89
2017-05-04T00:23:41.132Z,929.85
2017-05-04T00:24:00.422Z,929.88
2017-05-04T00:24:18.650Z,929.84
2017-05-04T00:24:37.925Z,929.84
2017-05-04T00:24:57.187Z,929.86
2017-05-04T00:25:16.458Z,929.85
2017-05-04T00:25:35.242Z,929.82
2017-05-04T00:25:54.519Z,929.81
2017-05-04T00:26:13.282Z,929.81
2017-05-04T00:26:32.111Z,929.84
2017-05-04T00:26:51.342Z,929.82
2017-05-04T00:27:10.112Z,929.83
2017-05-04T00:27:28.877Z,929.77
2017-05-04T00:27:48.169Z,929.81
2017-05-04T00:28:06.904Z,929.78
2017-05-04T00:28:25.653Z,929.78
2017-05-04T00:28:44.929Z,929.75
2017-05-04T00:29:03.674Z,929.77
2017-05-04T00:29:22.927Z,929.77
2017-05-04T00:29:42.163Z,929.8
2017-05-04T00:30:00.909Z,929.78
2017-05-04T00:30:20.157Z,929.8
2017-05-04T00:30:39.425Z,929.79
2017-05-04T00:30:58.674Z,929.82
2017-05-04T00:31:17.964Z,929.81
2017-05-04T00:31:37.247Z,929.8
2017-05-04T00:31:56.509Z,929.83
2017-05-04T00:32:14.780Z,929.82
2017-05-04T00:32:34.078Z,929.8
2017-05-04T00:32:53.383Z,929.82
2017-05-04T00:33:12.679Z,929.79
2017-05-04T00:33:31.975Z,929.8
2017-05-04T00:34:25.555Z,929.79
2017-05-04T00:34:44.280Z,929.77
2017-05-04T00:35:03.550Z,929.78
2017-05-04T00:35:22.296Z,929.76
2017-05-04T00:35:41.573Z,929.77
2017-05-04T00:36:00.312Z,929.75
2017-05-04T00:36:19.593Z,929.76
2017-05-04T00:36:38.840Z,929.74
2017-05-04T00:36:57.622Z,929.75
2017-05-04T00:37:16.395Z,929.74
2017-05-04T00:37:35.683Z,929.76
2017-05-04T00:37:54.920Z,929.73
2017-05-04T00:38:14.221Z,929.75
2017-05-04T00:38:33.493Z,929.7
2017-05-04T00:38:51.741Z,929.74
2017-05-04T00:39:10.998Z,929.71
2017-05-04T00:39:30.230Z,929.69
2017-05-04T00:39:49.509Z,929.69
2017-05-04T00:40:08.794Z,929.71
2017-05-04T00:40:28.075Z,929.64
2017-05-04T00:40:47.369Z,929.7
2017-05-04T00:41:06.641Z,929.69
2017-05-04T00:41:24.893Z,929.71
2017-05-04T00:41:43.159Z,929.7
2017-05-04T00:42:02.429Z,929.67
2017-05-04T00:42:21.161Z,929.68
2017-05-04T00:42:40.443Z,929.66
2017-05-04T00:42:59.735Z,929.68
2017-05-04T00:43:17.980Z,929.64
2017-05-04T00:43:37.224Z,929.63
2017-05-04T00:43:56.540Z,929.67
2017-05-04T00:44:15.803Z,929.7
2017-05-04T00:44:35.088Z,929.68
2017-05-04T00:44:54.354Z,929.66
2017-05-04T00:45:13.091Z,929.7
2017-05-04T00:45:31.827Z,929.7
2017-05-04T00:45:51.101Z,929.7
2017-05-04T00:46:10.344Z,929.69
2017-05-04T00:46:29.087Z,929.66
2017-05-04T00:46:48.341Z,929.68
2017-05-04T00:47:07.102Z,929.72
2017-05-04T00:47:26.378Z,929.7
2017-05-04T00:47:45.647Z,929.73
2017-05-04T00:48:04.479Z,929.73
2017-05-04T00:48:23.283Z,929.73
2017-05-04T00:48:42.543Z,929.73
2017-05-04T00:49:01.836Z,929.75
2017-05-04T00:49:21.121Z,929.72
2017-05-04T00:49:39.886Z,929.75
2017-05-04T00:49:59.221Z,929.75
2017-05-04T00:50:17.994Z,929.78
2017-05-04T00:50:36.240Z,929.77
2017-05-04T00:50:55.532Z,929.76
2017-05-04T00:51:14.283Z,929.79
2017-05-04T00:51:33.129Z,929.81
2017-05-04T00:51:51.879Z,929.78
2017-05-04T00:52:11.136Z,929.79
2017-05-04T00:52:30.433Z,929.76
2017-05-04T00:52:49.194Z,929.76
2017-05-04T00:53:08.437Z,929.81
2017-05-04T00:53:27.760Z,929.76
2017-05-04T00:53:47.051Z,929.82
2017-05-04T00:54:06.330Z,929.83
2017-05-04T00:54:25.101Z,929.8
2017-05-04T00:54:44.369Z,929.83
2017-05-04T00:55:03.594Z,929.8
2017-05-04T00:55:21.851Z,929.83
2017-05-04T00:55:41.149Z,929.81
2017-05-04T00:56:00.416Z,929.81
2017-05-04T00:56:19.178Z,929.82
2017-05-04T00:56:38.433Z,929.8
2017-05-04T00:56:57.720Z,929.83
2017-05-04T00:57:16.945Z,929.81
2017-05-04T00:57:36.180Z,929.86
2017-05-04T00:57:55.406Z,929.8
2017-05-04T00:58:14.117Z,929.81
2017-05-04T00:58:33.357Z,929.77
2017-05-04T00:58:52.657Z,929.8
2017-05-04T00:59:11.923Z,929.81
2017-05-04T00:59:31.166Z,929.81
2017-05-04T00:59:50.440Z,929.81
2017-05-04T01:00:09.206Z,929.81
2017-05-04T01:00:28.487Z,929.8
2017-05-04T01:00:47.749Z,929.78
2017-05-04T01:01:07.013Z,929.8
2017-05-04T01:01:25.244Z,929.78
2017-05-04T01:01:44.543Z,929.82
2017-05-04T01:02:03.802Z,929.78
2017-05-04T01:02:23.079Z,929.78
2017-05-04T01:02:41.862Z,929.78
2017-05-04T01:03:01.097Z,929.75
2017-05-04T01:03:19.886Z,929.73
2017-05-04T01:03:39.194Z,929.79
2017-05-04T01:03:58.484Z,929.76
2017-05-04T01:04:16.714Z,929.75
2017-05-04T01:04:35.959Z,929.75
2017-05-04T01:04:55.210Z,929.77
2017-05-04T01:05:14.483Z,929.74
2017-05-04T01:05:33.737Z,929.73
2017-05-04T01:05:53.019Z,929.71
2017-05-04T01:06:11.782Z,929.7
2017-05-04T01:06:30.502Z,929.71
2017-05-04T01:06:49.801Z,929.68
2017-05-04T01:07:09.061Z,929.68
2017-05-04T01:07:27.811Z,929.66
2017-05-04T01:07:47.072Z,929.65
2017-05-04T01:08:05.826Z,929.69
2017-05-04T01:08:24.542Z,929.64
2017-05-04T01:08:43.324Z,929.63
2017-05-04T01:09:02.570Z,929.62
2017-05-04T01:09:21.332Z,929.64
2017-05-04T01:09:40.629Z,929.62
2017-05-04T01:09:59.906Z,929.62
2017-05-04T01:10:19.211Z,929.59
2017-05-04T01:10:38.480Z,929.58
2017-05-04T01:10:57.224Z,929.56
2017-05-04T01:11:16.484Z,929.56
2017-05-04T01:11:35.786Z,929.54
2017-05-04T01:11:55.073Z,929.53
2017-05-04T01:12:13.824Z,929.54
2017-05-04T01:12:32.595Z,929.53
2017-05-04T01:12:51.818Z,929.53
2017-05-04T01:13:11.088Z,929.57
2017-05-04T01:13:30.324Z,929.54
2017-05-04T01:13:49.617Z,929.54
2017-05-04T01:14:08.892Z,929.57
2017-05-04T01:14:28.197Z,929.54
2017-05-04T01:14:47.477Z,929.61
2017-05-04T01:15:06.744Z,929.58
2017-05-04T01:15:25.493Z,929.58
2017-05-04T01:15:44.752Z,929.58
2017-05-04T01:16:04.017Z,929.57
2017-05-04T01:16:23.290Z,929.56
2017-05-04T01:16:42.547Z,929.55
2017-05-04T01:17:01.297Z,929.58
2017-05-04T01:17:20.033Z,929.53
2017-05-04T01:17:39.293Z,929.55
2017-05-04T01:17:58.572Z,929.58
2017-05-04T01:18:16.780Z,929.55
2017-05-04T01:18:35.515Z,929.57
2017-05-04T01:18:54.764Z,929.52
2017-05-04T01:19:14.006Z,929.53
2017-05-04T01:19:32.770Z,929.51
2017-05-04T01:19:51.516Z,929.58
2017-05-04T01:20:10.281Z,929.53
2017-05-04T01:20:29.009Z,929.55
2017-05-04T01:20:48.293Z,929.54
2017-05-04T01:21:07.575Z,929.54
2017-05-04T01:21:25.809Z,929.57
2017-05-04T01:21:45.053Z,929.59
2017-05-04T01:22:03.777Z,929.58
2017-05-04T01:22:22.550Z,929.56
2017-05-04T01:22:41.842Z,929.55
2017-05-04T01:23:01.070Z,929.54
2017-05-04T01:23:20.377Z,929.53
2017-05-04T01:23:39.663Z,929.57
2017-05-04T01:23:58.947Z,929.6
2017-05-04T01:24:17.695Z,929.62
2017-05-04T01:24:36.999Z,929.56
2017-05-04T01:24:56.263Z,929.55
2017-05-04T01:25:15.566Z,929.58
2017-05-04T01:25:34.335Z,929.56
2017-05-04T01:25:53.626Z,929.59
2017-05-04T01:26:12.840Z,929.56
2017-05-04T01:26:31.589Z,929.57
2017-05-04T01:26:50.867Z,929.57
2017-05-04T01:27:09.606Z,929.6
2017-05-04T01:27:28.352Z,929.58
2017-05-04T01:27:47.599Z,929.57
2017-05-04T01:28:06.373Z,929.55
2017-05-04T01:28:25.630Z,929.55
2017-05-04T01:28:44.360Z,929.55
2017-05-04T01:29:03.644Z,929.55
2017-05-04T01:29:22.924Z,929.57
2017-05-04T01:29:42.187Z,929.57
2017-05-04T01:30:01.445Z,929.56
2017-05-04T01:30:20.169Z,929.56
2017-05-04T01:30:39.503Z,929.57
2017-05-04T01:30:58.790Z,929.57
2017-05-04T01:31:18.132Z,929.6
2017-05-04T01:31:37.400Z,929.59
2017-05-04T01:31:56.141Z,929.6
2017-05-04T01:32:14.860Z,929.61
2017-05-04T01:32:33.603Z,929.63
2017-05-04T01:32:52.874Z,929.61
2017-05-04T01:33:12.106Z,929.58
2017-05-04T01:33:30.326Z,929.61
2017-05-04T01:33:49.642Z,929.63
2017-05-04T01:34:08.908Z,929.63
2017-05-04T01:34:27.723Z,929.62
2017-05-04T01:34:46.491Z,929.62
2017-05-04T01:35:05.748Z,929.62
2017-05-04T01:35:25.007Z,929.61
2017-05-04T01:35:44.285Z,929.62
2017-05-04T01:36:03.551Z,929.59
2017-05-04T01:36:22.837Z,929.6
2017-05-04T01:36:42.082Z,929.62
2017-05-04T01:37:00.355Z,929.6
2017-05-04T01:37:19.098Z,929.63
2017-05-04T01:37:38.363Z,929.62
2017-05-04T01:37:57.629Z,929.63
2017-05-04T01:38:16.374Z,929.6
2017-05-04T01:38:35.635Z,929.62
2017-05-04T01:38:54.898Z,929.61
2017-05-04T01:39:14.132Z,929.65
2017-05-04T01:39:33.411Z,929.66
2017-05-04T01:39:52.691Z,929.64
2017-05-04T01:40:11.932Z,929.63
2017-05-04T01:40:31.166Z,929.64
2017-05-04T01:40:50.431Z,929.63
2017-05-04T01:41:09.196Z,929.64
2017-05-04T01:41:28.466Z,929.63
2017-05-04T01:41:47.721Z,929.63
2017-05-04T01:42:07.004Z,929.65
2017-05-04T01:42:25.728Z,929.65
2017-05-04T01:42:44.455Z,929.63
2017-05-04T01:43:03.700Z,929.65
2017-05-04T01:43:22.428Z,929.66
2017-05-04T01:43:41.686Z,929.64
2017-05-04T01:44:00.431Z,929.63
2017-05-04T01:44:19.174Z,929.65
2017-05-04T01:44:37.932Z,929.65
2017-05-04T01:44:57.201Z,929.61
2017-05-04T01:45:16.454Z,929.62
2017-05-04T01:45:35.723Z,929.63
2017-05-04T01:45:54.495Z,929.63
2017-05-04T01:46:13.343Z,929.59
2017-05-04T01:46:32.627Z,929.6
2017-05-04T01:46:50.830Z,929.64
2017-05-04T01:47:09.595Z,929.63
2017-05-04T01:47:28.882Z,929.62
2017-05-04T01:47:47.675Z,929.61
2017-05-04T01:48:06.944Z,929.66
2017-05-04T01:48:25.680Z,929.65
2017-05-04T01:48:45.021Z,929.62
2017-05-04T01:49:04.292Z,929.63
2017-05-04T01:49:23.542Z,929.62
2017-05-04T01:49:42.919Z,929.69
2017-05-04T01:50:02.194Z,929.71
2017-05-04T01:50:20.957Z,929.68
2017-05-04T01:50:40.270Z,929.65
2017-05-04T01:51:00.418Z,929.65
2017-05-04T01:51:19.217Z,929.67
2017-05-04T01:51:38.013Z,929.67
2017-05-04T01:51:56.757Z,929.69
2017-05-04T01:52:15.500Z,929.68
2017-05-04T01:52:34.853Z,929.69
2017-05-04T01:52:54.148Z,929.68
2017-05-04T01:53:13.419Z,929.68
2017-05-04T01:53:32.175Z,929.66
2017-05-04T01:53:51.449Z,929.65
2017-05-04T01:54:10.190Z,929.64
2017-05-04T01:54:29.458Z,929.62
2017-05-04T01:54:48.741Z,929.63
2017-05-04T01:55:07.508Z,929.63
2017-05-04T01:55:25.760Z,929.64
2017-05-04T01:55:44.498Z,929.59
2017-05-04T01:56:03.789Z,929.62
2017-05-04T01:56:22.492Z,929.58
2017-05-04T01:56:41.767Z,929.6
2017-05-04T01:57:01.058Z,929.58
2017-05-04T01:57:19.818Z,929.61
2017-05-04T01:57:38.549Z,929.58
2017-05-04T01:57:57.846Z,929.57
2017-05-04T01:58:17.102Z,929.61
2017-05-04T01:58:35.810Z,929.63
2017-05-04T01:58:54.585Z,929.57
2017-05-04T01:59:13.849Z,929.61
2017-05-04T01:59:33.143Z,929.56
2017-05-04T01:59:52.434Z,929.56
2017-05-04T02:00:11.701Z,929.63
2017-05-04T02:00:30.479Z,929.57
2017-05-04T02:00:49.230Z,929.58
2017-05-04T02:01:08.489Z,929.54
2017-05-04T02:01:27.245Z,929.55
2017-05-04T02:01:46.258Z,929.6
2017-05-04T02:02:05.520Z,929.64
2017-05-04T02:02:24.819Z,929.58
2017-05-04T02:02:43.552Z,929.61
2017-05-04T02:03:02.829Z,929.62
2017-05-04T02:03:21.625Z,929.64
2017-05-04T02:03:40.879Z,929.63
2017-05-04T02:04:00.151Z,929.62
2017-05-04T02:04:19.415Z,929.65
2017-05-04T02:04:38.180Z,929.64
2017-05-04T02:04:57.435Z,929.59
2017-05-04T02:05:16.683Z,929.6
2017-05-04T02:05:35.450Z,929.62
2017-05-04T02:05:54.773Z,929.6
2017-05-04T02:06:13.601Z,929.58
2017-05-04T02:06:32.846Z,929.62
2017-05-04T02:06:52.091Z,929.63
2017-05-04T02:07:11.354Z,929.58
2017-05-04T02:07:30.589Z,929.6
2017-05-04T02:07:49.839Z,929.6
2017-05-04T02:08:09.049Z,929.61
2017-05-04T02:08:27.791Z,929.57
2017-05-04T02:08:46.565Z,929.59
2017-05-04T02:09:05.829Z,929.58
2017-05-04T02:09:25.076Z,929.62
2017-05-04T02:09:44.385Z,929.59
2017-05-04T02:10:03.655Z,929.61
2017-05-04T02:10:21.381Z,929.63
2017-05-04T02:10:40.634Z,929.61
2017-05-04T02:10:59.894Z,929.64
2017-05-04T02:11:19.193Z,929.66
2017-05-04T02:11:38.451Z,929.65
2017-05-04T02:11:57.715Z,929.59
2017-05-04T02:12:16.481Z,929.65
2017-05-04T02:12:35.219Z,929.63
2017-05-04T02:12:54.490Z,929.64
2017-05-04T02:13:13.772Z,929.68
2017-05-04T02:13:33.023Z,929.65
2017-05-04T02:13:52.298Z,929.65
2017-05-04T02:14:11.566Z,929.71
2017-05-04T02:14:30.842Z,929.67
2017-05-04T02:14:49.571Z,929.65
2017-05-04T02:15:08.300Z,929.65
2017-05-04T02:15:27.094Z,929.63
2017-05-04T02:15:46.335Z,929.66
2017-05-04T02:16:05.098Z,929.7
2017-05-04T02:16:24.372Z,929.65
2017-05-04T02:16:43.120Z,929.66
2017-05-04T02:17:01.380Z,929.65
2017-05-04T02:17:20.238Z,929.66
2017-05-04T02:17:39.049Z,929.68
2017-05-04T02:17:58.313Z,929.67
2017-05-04T02:18:17.574Z,929.67
2017-05-04T02:18:36.357Z,929.65
2017-05-04T02:18:55.649Z,929.67
2017-05-04T02:19:14.407Z,929.63
2017-05-04T02:19:33.200Z,929.67
2017-05-04T02:19:52.461Z,929.63
2017-05-04T02:20:11.713Z,929.68
2017-05-04T02:20:30.458Z,929.6
2017-05-04T02:20:49.709Z,929.63
2017-05-04T02:21:09.001Z,929.63
2017-05-04T02:21:28.429Z,929.63
2017-05-04T02:21:47.171Z,929.62
2017-05-04T02:22:06.463Z,929.58
2017-05-04T02:22:25.720Z,929.6
2017-05-04T02:22:44.443Z,929.59
2017-05-04T02:23:03.716Z,929.61
2017-05-04T02:23:22.977Z,929.61
2017-05-04T02:23:42.195Z,929.58
2017-05-04T02:24:01.463Z,929.57
2017-05-04T02:24:20.196Z,929.58
2017-05-04T02:24:39.467Z,929.56
2017-05-04T02:24:58.206Z,929.62
2017-05-04T02:25:16.957Z,929.59
2017-05-04T02:25:35.700Z,929.58
2017-05-04T02:25:54.994Z,929.59
2017-05-04T02:26:13.852Z,929.58
2017-05-04T02:26:32.618Z,929.56
2017-05-04T02:26:51.341Z,929.6
2017-05-04T02:27:10.602Z,929.56
2017-05-04T02:27:29.369Z,929.55
2017-05-04T02:27:48.616Z,929.51
2017-05-04T02:28:07.882Z,929.53
2017-05-04T02:28:26.651Z,929.51
2017-05-04T02:28:45.885Z,929.51
2017-05-04T02:29:05.106Z,929.52
2017-05-04T02:29:23.842Z,929.47
2017-05-04T02:29:43.152Z,929.46
2017-05-04T02:30:02.440Z,929.47
2017-05-04T02:30:21.224Z,929.47
2017-05-04T02:30:40.516Z,929.41
2017-05-04T02:30:59.756Z,929.42
2017-05-04T02:31:19.040Z,929.43
2017-05-04T02:31:38.300Z,929.38
2017-05-04T02:31:57.550Z,929.4
2017-05-04T02:32:16.802Z,929.38
2017-05-04T02:32:36.105Z,929.39
2017-05-04T02:32:55.381Z,929.37
2017-05-04T02:33:14.660Z,929.39
2017-05-04T02:33:33.918Z,929.38
2017-05-04T02:33:53.203Z,929.4
2017-05-04T02:34:12.497Z,929.4
2017-05-04T02:34:31.238Z,929.43
2017-05-04T02:34:50.494Z,929.4
2017-05-04T02:35:09.225Z,929.38
2017-05-04T02:35:27.997Z,929.4
2017-05-04T02:35:47.271Z,929.38
2017-05-04T02:36:06.525Z,929.38
2017-05-04T02:36:25.272Z,929.4
2017-05-04T02:36:44.579Z,929.4
2017-05-04T02:37:03.370Z,929.38
2017-05-04T02:37:55.471Z,929.33
2017-05-04T02:38:14.689Z,929.31
2017-05-04T02:38:33.446Z,929.27
2017-05-04T02:38:52.766Z,929.31
2017-05-04T02:39:12.051Z,929.26
2017-05-04T02:39:31.316Z,929.28
2017-05-04T02:39:50.070Z,929.25
2017-05-04T02:40:09.378Z,929.25
2017-05-04T02:40:28.167Z,929.25
2017-05-04T02:40:46.981Z,929.24
2017-05-04T02:41:06.221Z,929.28
2017-05-04T02:41:25.014Z,929.29
2017-05-04T02:41:44.313Z,929.25
2017-05-04T02:42:03.562Z,929.28
2017-05-04T02:42:21.768Z,929.3
2017-05-04T02:42:40.573Z,929.29
2017-05-04T02:42:59.352Z,929.28
2017-05-04T02:43:17.606Z,929.27
2017-05-04T02:43:36.886Z,929.24
2017-05-04T02:43:56.151Z,929.26
2017-05-04T02:44:15.433Z,929.26
2017-05-04T02:44:34.737Z,929.26
2017-05-04T02:44:53.974Z,929.25
2017-05-04T02:45:12.228Z,929.21
2017-05-04T02:45:31.021Z,929.23
2017-05-04T02:45:49.778Z,929.2
2017-05-04T02:46:09.178Z,929.21
2017-05-04T02:46:28.413Z,929.23
2017-05-04T02:46:47.751Z,929.23
2017-05-04T02:47:06.990Z,929.26
2017-05-04T02:47:26.279Z,929.2
2017-05-04T02:47:45.578Z,929.21
2017-05-04T02:48:05.109Z,929.22
2017-05-04T02:48:24.429Z,929.23
2017-05-04T02:48:43.818Z,929.21
2017-05-04T02:49:03.070Z,929.24
2017-05-04T02:49:21.848Z,929.22
2017-05-04T02:49:40.630Z,929.22
2017-05-04T02:49:59.970Z,929.19
2017-05-04T02:50:18.704Z,929.19
2017-05-04T02:50:37.457Z,929.22
2017-05-04T02:50:56.744Z,929.27
2017-05-04T02:51:16.160Z,929.22
2017-05-04T02:51:35.439Z,929.22
2017-05-04T02:51:54.378Z,929.23
2017-05-04T02:52:13.693Z,929.23
2017-05-04T02:52:32.951Z,929.23
2017-05-04T02:52:52.233Z,929.23
2017-05-04T02:53:11.513Z,929.21
2017-05-04T02:53:30.289Z,929.21
2017-05-04T02:53:49.595Z,929.23
2017-05-04T02:54:08.865Z,929.19
2017-05-04T02:54:28.125Z,929.23
2017-05-04T02:54:46.871Z,929.19
2017-05-04T02:55:06.135Z,929.2
2017-05-04T02:55:25.378Z,929.2
2017-05-04T02:55:43.617Z,929.23
2017-05-04T02:56:02.913Z,929.19
2017-05-04T02:56:21.159Z,929.21
2017-05-04T02:56:40.388Z,929.19
2017-05-04T02:56:59.145Z,929.21
2017-05-04T02:57:17.890Z,929.19
2017-05-04T02:57:37.152Z,929.23
2017-05-04T02:57:56.427Z,929.19
2017-05-04T02:58:14.654Z,929.22
2017-05-04T02:58:33.912Z,929.18
2017-05-04T02:58:53.184Z,929.22
2017-05-04T02:59:12.029Z,929.21
2017-05-04T02:59:31.371Z,929.19
2017-05-04T02:59:50.737Z,929.18
2017-05-04T03:00:10.068Z,929.2
2017-05-04T03:00:29.419Z,929.2
2017-05-04T03:00:48.703Z,929.19
2017-05-04T03:01:08.010Z,929.19
2017-05-04T03:01:27.288Z,929.18
2017-05-04T03:01:46.554Z,929.2
2017-05-04T03:02:05.802Z,929.21
2017-05-04T03:02:25.053Z,929.22
2017-05-04T03:02:43.810Z,929.23
2017-05-04T03:03:03.068Z,929.21
2017-05-04T03:03:21.813Z,929.21
2017-05-04T03:03:40.565Z,929.21
2017-05-04T03:03:59.886Z,929.19
2017-05-04T03:04:19.313Z,929.19
2017-05-04T03:04:38.644Z,929.17
2017-05-04T03:04:57.944Z,929.2
2017-05-04T03:05:17.188Z,929.19
2017-05-04T03:05:36.455Z,929.19
2017-05-04T03:05:55.699Z,929.18
2017-05-04T03:06:14.717Z,929.21
2017-05-04T03:06:33.977Z,929.2
2017-05-04T03:06:53.260Z,929.21
2017-05-04T03:07:12.041Z,929.21
2017-05-04T03:07:30.759Z,929.24
2017-05-04T03:07:50.024Z,929.27
2017-05-04T03:08:09.313Z,929.24
2017-05-04T03:08:27.044Z,929.22
2017-05-04T03:08:46.334Z,929.23
2017-05-04T03:09:05.620Z,929.23
2017-05-04T03:09:24.374Z,929.23
2017-05-04T03:09:43.683Z,929.22
2017-05-04T03:10:02.438Z,929.21
2017-05-04T03:10:21.729Z,929.23
2017-05-04T03:10:40.958Z,929.23
2017-05-04T03:11:00.251Z,929.21
2017-05-04T03:11:19.005Z,929.2
2017-05-04T03:11:38.311Z,929.19
2017-05-04T03:11:57.638Z,929.21
2017-05-04T03:12:16.869Z,929.19
2017-05-04T03:12:35.625Z,929.21
2017-05-04T03:12:55.063Z,929.21
2017-05-04T03:13:13.828Z,929.2
2017-05-04T03:13:33.117Z,929.2
2017-05-04T03:13:52.391Z,929.2
2017-05-04T03:14:11.674Z,929.21
2017-05-04T03:14:30.932Z,929.19
2017-05-04T03:14:49.714Z,929.18
2017-05-04T03:15:08.524Z,929.17
2017-05-04T03:15:27.304Z,929.18
2017-05-04T03:15:46.573Z,929.17
2017-05-04T03:16:05.818Z,929.17
2017-05-04T03:16:25.050Z,929.16
2017-05-04T03:16:43.815Z,929.12
2017-05-04T03:17:03.098Z,929.19
2017-05-04T03:17:22.321Z,929.18
2017-05-04T03:17:41.045Z,929.12
2017-05-04T03:18:00.314Z,929.16
2017-05-04T03:18:19.071Z,929.15
2017-05-04T03:18:37.867Z,929.14
2017-05-04T03:18:57.115Z,929.14
2017-05-04T03:19:16.368Z,929.14
2017-05-04T03:19:35.682Z,929.14
2017-05-04T03:19:54.929Z,929.12
2017-05-04T03:20:14.155Z,929.13
2017-05-04T03:20:33.403Z,929.12
2017-05-04T03:20:52.646Z,929.15
2017-05-04T03:21:11.934Z,929.11
2017-05-04T03:21:30.140Z,929.11
2017-05-04T03:21:48.893Z,929.13
2017-05-04T03:22:08.181Z,929.12
2017-05-04T03:22:26.981Z,929.08
2017-05-04T03:22:45.777Z,929.12
2017-05-04T03:23:05.105Z,929.12
2017-05-04T03:23:24.363Z,929.13
2017-05-04T03:23:43.121Z,929.1
2017-05-04T03:24:02.427Z,929.14
2017-05-04T03:24:21.706Z,929.11
2017-05-04T03:24:40.980Z,929.11
2017-05-04T03:25:00.246Z,929.13
2017-05-04T03:25:18.470Z,929.15
2017-05-04T03:25:37.754Z,929.15
2017-05-04T03:25:57.052Z,929.13
2017-05-04T03:26:16.319Z,929.14
2017-05-04T03:26:35.075Z,929.12
2017-05-04T03:26:53.794Z,929.15
2017-05-04T03:27:13.060Z,929.16
2017-05-04T03:27:31.815Z,929.15
2017-05-04T03:27:51.075Z,929.14
2017-05-04T03:28:09.311Z,929.16
2017-05-04T03:28:27.564Z,929.15
2017-05-04T03:28:46.835Z,929.16
2017-05-04T03:29:06.105Z,929.13
2017-05-04T03:29:25.375Z,929.14
2017-05-04T03:29:44.154Z,929.13
2017-05-04T03:30:03.452Z,929.13
2017-05-04T03:30:21.709Z,929.15
2017-05-04T03:30:40.925Z,929.16
2017-05-04T03:31:00.188Z,929.13
2017-05-04T03:31:18.952Z,929.13
2017-05-04T03:31:38.201Z,929.12
2017-05-04T03:31:56.964Z,929.13
2017-05-04T03:32:16.209Z,929.13
2017-05-04T03:32:35.492Z,929.12
2017-05-04T03:32:54.244Z,929.08
2017-05-04T03:33:13.535Z,929.08
2017-05-04T03:33:46.771Z,929.07
2017-05-04T03:34:06.048Z,929.06
2017-05-04T03:34:25.309Z,929.05
2017-05-04T03:34:43.532Z,929.08
2017-05-04T03:35:02.278Z,929
2017-05-04T03:35:21.559Z,929.05
2017-05-04T03:35:40.799Z,929.02
2017-05-04T03:35:59.527Z,929.05
2017-05-04T03:36:18.884Z,929.06
2017-05-04T03:36:38.169Z,929.05
2017-05-04T03:36:56.923Z,929.05
2017-05-04T03:37:16.194Z,929.07
2017-05-04T03:37:34.987Z,929.02
2017-05-04T03:37:53.744Z,929.04
2017-05-04T03:38:13.006Z,929.03
2017-05-04T03:38:32.297Z,929.05
2017-05-04T03:38:51.580Z,929.03
2017-05-04T03:39:11.280Z,929.03
2017-05-04T03:39:30.557Z,929.04
2017-05-04T03:39:49.796Z,929.02
2017-05-04T03:40:09.049Z,929.05
2017-05-04T03:40:27.783Z,929.02
2017-05-04T03:40:47.072Z,929.02
2017-05-04T03:41:06.242Z,929
2017-05-04T03:41:24.982Z,929.02
2017-05-04T03:41:44.256Z,928.99
2017-05-04T03:42:03.516Z,928.99
2017-05-04T03:42:22.283Z,929.01
2017-05-04T03:42:41.603Z,928.99
2017-05-04T03:43:00.836Z,928.99
2017-05-04T03:43:19.617Z,928.99
2017-05-04T03:43:38.920Z,929
2017-05-04T03:43:58.207Z,929
2017-05-04T03:44:17.455Z,929.01
2017-05-04T03:44:36.727Z,929.03
2017-05-04T03:44:55.997Z,929.02
2017-05-04T03:45:14.712Z,929.01
2017-05-04T03:45:33.960Z,929.01
2017-05-04T03:45:52.715Z,929.02
2017-05-04T03:46:11.437Z,928.99
2017-05-04T03:46:30.713Z,929.02
2017-05-04T03:46:50.011Z,928.99
2017-05-04T03:47:09.302Z,929.01
2017-05-04T03:47:28.573Z,928.96
2017-05-04T03:47:46.803Z,929
2017-05-04T03:48:06.048Z,928.97
2017-05-04T03:48:24.815Z,928.97
2017-05-04T03:48:43.605Z,928.94
2017-05-04T03:49:02.399Z,928.94
2017-05-04T03:49:21.193Z,928.91
2017-05-04T03:49:40.491Z,928.92
2017-05-04T03:49:59.269Z,928.91
2017-05-04T03:50:18.579Z,928.94
2017-05-04T03:50:37.863Z,928.95
2017-05-04T03:50:57.101Z,928.94
2017-05-04T03:51:16.382Z,928.91
2017-05-04T03:51:35.659Z,928.91
2017-05-04T03:51:54.938Z,928.91
2017-05-04T03:52:13.713Z,928.95
2017-05-04T03:52:32.479Z,928.91
2017-05-04T03:52:51.734Z,928.92
2017-05-04T03:53:10.975Z,928.91
2017-05-04T03:53:29.709Z,928.93
2017-05-04T03:53:48.968Z,928.92
2017-05-04T03:54:08.243Z,928.89
2017-05-04T03:54:26.979Z,928.91
2017-05-04T03:54:46.236Z,928.95
2017-05-04T03:55:05.515Z,928.94
2017-05-04T03:55:24.807Z,928.92
2017-05-04T03:55:44.067Z,928.89
2017-05-04T03:56:03.493Z,928.92
2017-05-04T03:56:22.211Z,928.91
2017-05-04T03:56:41.504Z,928.9
2017-05-04T03:57:00.765Z,928.88
2017-05-04T03:57:19.527Z,928.87
2017-05-04T03:57:38.831Z,928.87
2017-05-04T03:57:58.073Z,928.84
2017-05-04T03:58:17.332Z,928.86
2017-05-04T03:58:36.081Z,928.87
2017-05-04T03:58:54.817Z,928.83
2017-05-04T03:59:14.090Z,928.85
2017-05-04T03:59:33.393Z,928.85
2017-05-04T03:59:52.171Z,928.83
2017-05-04T04:00:11.478Z,928.87